ウアリ・ブーメディアン空港の過去48時間の天気

ウアリ・ブーメディアン空港 (Dar-El-Beida)

現在時刻: 2/21 18:53 CET (2/21 17:53 UTC) 以下の時間は現地時間です。

過去48時間のMETAR気象情報
時間 風向 風速(m/s) 視程 気温(℃) 湿度(%) 気圧(hPa) 天気現象
21 18:30 2 10km以上 13 82 1030
21 18:00 4 10km以上 14 77 1030
21 17:30 5 10km以上 14 82 1029
21 17:00 東北東 5 10km以上 14 82 1029
21 16:30 東北東 5 10km以上 15 77 1029
21 16:00 東北東 5 10km以上 15 77 1029
21 15:30 東北東 5 7000m 15 72 1029
21 15:00 東北東 5 6000m 15 77 1029
21 14:30 東北東 5 6000m 15 72 1029
21 14:00 東北東 5 5000m 15 72 1029
21 13:30 東北東 4 5000m 15 67 1029
21 13:00 2 5000m 15 67 1029
21 12:30 東北東 2 4800m 14 72 1030 もや
21 12:00 静穏 0 4800m 14 67 1030 もや
21 11:30 静穏 0 4000m 12 77 1030 もや
21 11:00 静穏 0 3000m 11 82 1029 もや
21 10:30 静穏 0 3000m 9 87 1029 もや
21 10:00 不定 1 3000m 8 93 1029 もや
21 09:30 不定 1 3000m 6 100 1029 もや
21 09:00 2 3000m 5 93 1029 もや
21 08:30 南南西 1 3000m 4 100 1029 もや
21 08:00 南南西 2 2500m 4 100 1028 もや
21 07:30 2 600m 3 100 1028
21 07:00 静穏 0 1200m 3 100 1028 もや
21 06:30 南南西 1 800m 3 100 1027
21 06:00 静穏 0 800m 4 100 1027
21 05:30 2 800m 3 100 1027
21 05:00 静穏 0 600m 3 100 1027
21 04:30 静穏 0 600m 4 93 1027
21 04:00 静穏 0 1500m 4 100 1027 もや
21 03:30 静穏 0 6000m 4 100 1027
21 03:00 静穏 0 4000m 6 100 1027 もや
21 02:30 静穏 0 4000m 5 100 1027 もや
21 02:00 静穏 0 8000m 6 93 1027
21 01:30 静穏 0 10km以上 6 93 1027
21 01:00 静穏 0 10km以上 6 93 1027
21 00:30 静穏 0 10km以上 6 93 1027
21 00:00 静穏 0 10km以上 7 93 1026
20 23:30 静穏 0 10km以上 7 93 1027
20 23:00 南西 1 10km以上 7 93 1027
20 22:30 1 10km以上 8 93 1026
20 22:00 静穏 0 10km以上 8 93 1026
20 21:30 南西 1 10km以上 9 93 1026
20 21:00 南南西 2 10km以上 10 87 1026
20 20:30 南東 1 10km以上 11 87 1026
20 20:00 南東 1 10km以上 11 87 1025
20 19:30 2 10km以上 13 77 1025
20 19:00 東北東 2 10km以上 13 77 1025
20 18:30 2 10km以上 13 77 1025
20 18:00 東北東 3 10km以上 14 72 1025
20 17:30 3 10km以上 14 72 1024
20 17:00 4 10km以上 15 72 1024
20 16:30 東北東 5 10km以上 15 72 1024
20 16:00 東北東 4 10km以上 16 68 1024
20 15:30 北東 4 10km以上 16 68 1024
20 15:00 東北東 5 10km以上 17 63 1024
20 14:30 東北東 5 8000m 17 63 1024
20 14:00 北北東 3 8000m 18 64 1024
20 13:30 不定 1 8000m 17 59 1024
20 13:00 1 8000m 17 59 1024
20 12:30 不定 1 8000m 16 63 1024
20 12:00 西北西 1 8000m 15 67 1024
20 11:30 北北西 2 8000m 14 72 1024
20 11:00 西南西 2 7000m 15 67 1024
20 10:30 不定 1 7000m 13 72 1024
20 10:00 静穏 0 7000m 11 71 1024
20 09:30 不定 1 6000m 9 81 1023
20 09:00 不定 1 7000m 7 87 1023
20 08:00 静穏 0 10km以上 4 93 1022
20 06:30 2 10km以上 4 93 1021
20 06:00 南南東 1 10km以上 4 93 1021
20 05:30 南南東 2 10km以上 5 87 1021
20 05:00 2 10km以上 5 81 1021
20 04:30 南南西 1 10km以上 4 93 1021
20 04:00 南西 2 10km以上 5 87 1021
20 03:30 南西 2 10km以上 4 93 1021
20 03:00 南南東 2 10km以上 4 93 1021
20 02:30 静穏 0 10km以上 5 87 1021
20 02:00 2 10km以上 5 93 1021
20 01:30 静穏 0 10km以上 5 93 1021
20 01:00 南西 2 10km以上 6 87 1021
20 00:30 不定 1 10km以上 7 87 1021
20 00:00 南南西 2 10km以上 8 81 1021
19 23:30 南西 2 10km以上 8 81 1021
19 23:00 南西 3 10km以上 10 76 1021
19 22:30 南西 2 10km以上 9 81 1021
19 22:00 西南西 2 10km以上 10 82 1020
19 21:30 西南西 2 10km以上 10 87 1020
19 21:00 西 1 10km以上 10 87 1020
19 20:30 不定 1 10km以上 12 82 1020
19 20:00 北東 3 10km以上 12 88 1019
19 19:30 東北東 2 10km以上 12 82 1019
19 19:00 3 10km以上 13 77 1019
DAAG 211730Z 09004KT 9999 FEW023 SCT200 13/10 Q1030
DAAG 211700Z 08008KT 9999 FEW026 SCT100 BKN200 14/10 Q1030
DAAG 211630Z 08009KT 9999 FEW030 SCT100 BKN200 14/11 Q1029
DAAG 211600Z 07009KT 9999 FEW030 SCT100 BKN200 14/11 Q1029
DAAG 211530Z 07009KT 9999 FEW030 SCT100 BKN200 15/11 Q1029
DAAG 211500Z 07010KT 9999 FEW030 SCT100 BKN200 15/11 Q1029
DAAG 211430Z 07009KT 7000 FEW020 SCT090 BKN200 15/10 Q1029
DAAG 211400Z 06009KT 6000 NSC 15/11 Q1029
DAAG 211330Z 06009KT 040V100 6000 NSC 15/10 Q1029
DAAG 211300Z 06009KT 010V100 5000 NSC 15/10 Q1029
DAAG 211230Z 07008KT 050V110 5000 NSC 15/09 Q1029
DAAG 211200Z 08004KT 050V110 5000 NSC 15/09 Q1029
DAAG 211130Z 07004KT 030V110 4800 BR NSC 14/09 Q1030
DAAG 211100Z 00000KT 4800 BR NSC 14/08 Q1030
DAAG 211030Z 00000KT 4000 BR NSC 12/08 Q1030
DAAG 211000Z 00000KT 3000 BR FEW013 SCT083 11/08 Q1029
DAAG 210930Z 00000KT 3000 BR FEW013 SCT083 09/07 Q1029
DAAG 210900Z VRB02KT 3000 BR FEW020 SCT083 08/07 Q1029
DAAG 210830Z VRB01KT 3000 BR FEW010 SCT200 06/06 Q1029
DAAG 210800Z 18003KT 3000 BR FEW010 SCT200 05/04 Q1029
DAAG 210730Z 21002KT 3000 BR SCT010 04/04 Q1029
DAAG 210700Z 20003KT 2500 BR SCT010 04/04 Q1028
DAAG 210630Z 17003KT 0600 R09/P2000D FG SCT006 03/03 Q1028
DAAG 210600Z 00000KT 1200 R09/P2000N BR FEW010 03/03 Q1028
DAAG 210530Z 21001KT 0800 R09/P2000U FG FEW010 03/03 Q1027
DAAG 210500Z 00000KT 0800 R09/P2000D FG FEW010 04/04 Q1027
DAAG 210430Z 18003KT 150V220 0800 R09/P2000U FG FEW010 03/03 Q1027
DAAG 210400Z 00000KT 0600 R09/1800VP2000D FG FEW010 03/03 Q1027
DAAG 210330Z 00000KT 0600 R09/P2000D FG FEW010 04/03 Q1027
DAAG 210300Z 00000KT 1500 BR FEW010 04/04 Q1027
DAAG 210230Z 00000KT 6000 FEW013 04/04 Q1027
DAAG 210200Z 00000KT 4000 R09/1200VP2000D BR FEW013 06/06 Q1027
DAAG 210130Z 00000KT 4000 BR FEW013 05/05 Q1027
DAAG 210100Z 00000KT 8000 FEW013 06/05 Q1027
DAAG 210030Z 00000KT 9999 FEW013 06/05 Q1027
DAAG 210000Z 00000KT 9999 FEW013 06/05 Q1027
DAAG 202330Z 00000KT 9999 FEW023 06/05 Q1027
DAAG 202300Z 00000KT 9999 FEW023 07/06 Q1026
DAAG 202230Z 00000KT 9999 FEW023 07/06 Q1027
DAAG 202200Z 23001KT 9999 FEW023 07/06 Q1027
DAAG 202130Z 19002KT 9999 FEW023 SCT100 08/07 Q1026
DAAG 202100Z 00000KT 9999 FEW023 SCT100 08/07 Q1026
DAAG 202030Z 22002KT 9999 FEW023 SCT100 09/08 Q1026
DAAG 202000Z 20003KT 9999 FEW023 SCT100 10/08 Q1026
DAAG 201930Z 13002KT 9999 FEW023 SCT100 11/09 Q1026
DAAG 201900Z 14002KT 9999 FEW023 BKN100 11/09 Q1025
DAAG 201830Z 09003KT 050V130 9999 FEW023 BKN100 13/09 Q1025
DAAG 201800Z 07004KT 020V140 9999 FEW023 BKN090 13/09 Q1025
DAAG 201730Z 08004KT 020V110 9999 FEW023 BKN090 13/09 Q1025
DAAG 201700Z 07006KT 9999 FEW023 BKN090 14/09 Q1025
DAAG 201630Z 08006KT CAVOK 14/09 Q1024
DAAG 201600Z 08007KT 040V100 CAVOK 15/10 Q1024
DAAG 201530Z 06009KT 9999 FEW026 BKN086 15/10 Q1024
DAAG 201500Z 06008KT 9999 FEW026 SCT080 BKN180 16/10 Q1024
DAAG 201430Z 05008KT 020V120 9999 FEW026 BKN180 16/10 Q1024
DAAG 201400Z 06009KT 9999 FEW026 BKN180 17/10 Q1024
DAAG 201330Z 07009KT 030V100 8000 FEW026 BKN200 17/10 Q1024
DAAG 201300Z 03006KT 360V090 8000 FEW026 SCT200 18/11 Q1024
DAAG 201230Z VRB02KT 8000 SCT023 SCT200 17/09 Q1024
DAAG 201200Z 35002KT 8000 SCT020 BKN200 17/09 Q1024
DAAG 201130Z VRB02KT 8000 FEW020 SCT180 16/09 Q1024
DAAG 201100Z 30002KT 8000 FEW020 SCT180 15/09 Q1024
DAAG 201030Z 33003KT 230V010 8000 FEW026 SCT090 14/09 Q1024
DAAG 201000Z 24003KT 200V320 7000 FEW026 SCT090 15/09 Q1024
DAAG 200930Z VRB02KT 7000 FEW026 SCT090 13/08 Q1024
DAAG 200900Z 00000KT 7000 FEW026 SCT086 11/06 Q1024
DAAG 200830Z VRB02KT 6000 FEW020 SCT200 09/06 Q1023
DAAG 200800Z VRB02KT 7000 FEW020 SCT200 07/05 Q1023
DAAG 200700Z 00000KT 9999 FEW026 SCT200 04/03 Q1022
DAAG 200530Z 18003KT 9999 FEW026 04/03 Q1021
DAAG 200500Z 16001KT 9999 FEW026 04/03 Q1021
DAAG 200430Z 16003KT 9999 FEW026 05/03 Q1021
DAAG 200400Z 17003KT 9999 FEW026 05/02 Q1021
DAAG 200330Z 21002KT 9999 FEW026 04/03 Q1021
DAAG 200300Z 23003KT 210V270 9999 FEW026 05/03 Q1021
DAAG 200230Z 23003KT 190V260 9999 FEW026 04/03 Q1021
DAAG 200200Z 16003KT 9999 FEW026 04/03 Q1021
DAAG 200130Z 00000KT 9999 FEW026 05/03 Q1021
DAAG 200100Z 18003KT 9999 FEW026 05/04 Q1021
DAAG 200030Z 00000KT 9999 FEW026 05/04 Q1021
DAAG 200000Z 23003KT 200V270 9999 FEW026 06/04 Q1021
DAAG 192330Z VRB01KT 9999 FEW026 07/05 Q1021
DAAG 192300Z 20003KT 9999 FEW026 08/05 Q1021
DAAG 192230Z 23004KT 9999 FEW026 08/05 Q1021
DAAG 192200Z 23005KT 9999 FEW026 10/06 Q1021
DAAG 192130Z 22004KT 9999 FEW026 09/06 Q1021
DAAG 192100Z 25004KT 9999 FEW026 10/07 Q1020
DAAG 192030Z 25004KT 9999 FEW026 10/08 Q1020
DAAG 192000Z 28002KT 9999 FEW026 10/08 Q1020
DAAG 191930Z VRB02KT 9999 FEW026 12/09 Q1020
DAAG 191900Z 04005KT 360V070 9999 FEW033 SCT200 12/10 Q1019
DAAG 191830Z 07004KT 9999 FEW033 SCT200 12/09 Q1019
DAAG 191800Z 08005KT 9999 FEW033 SCT200 13/09 Q1019